Terminal Aerodrome Forecast
Issued by NWS

Home | Current Version | Previous Version | Text Only | Print | Product List | Glossary On
Versions: 1 2 3 4 5 6 7 8 9 10 11 12 13 14 15 16 17 18 19 20
423
FTUS43 KEAX 240537
TAFSTJ
TAF
KSTJ 240537Z 2406/2506 11007KT 4SM BR SCT200
     FM240900 12013KT 3SM BR BKN004
     FM241400 15014G22KT P6SM SCT025
     FM250100 24011KT P6SM SCT050=

USA.gov is the U.S. government's official web portal to all federal, state and local government web resources and services.